createdAt,value
2019-01-05T00:02:01.144Z,20.33
2019-01-05T00:05:07.326Z,18.27
2019-01-05T00:08:02.388Z,18.53
2019-01-05T00:11:04.064Z,18.87
2019-01-05T00:14:09.856Z,18.00
2019-01-05T00:16:59.472Z,18.37
2019-01-05T00:19:52.403Z,17.83
2019-01-05T00:22:58.476Z,19.50
2019-01-05T00:26:03.143Z,17.33
2019-01-05T00:28:55.700Z,17.87
2019-01-05T00:32:07.751Z,19.23
2019-01-05T00:35:00.672Z,20.13
2019-01-05T00:37:54.536Z,19.77
2019-01-05T00:40:53.457Z,18.87
2019-01-05T00:43:58.100Z,18.50
2019-01-05T00:47:05.584Z,18.83
2019-01-05T00:50:01.681Z,19.27
2019-01-05T00:53:07.455Z,20.47
2019-01-05T00:56:13.581Z,19.00
2019-01-05T00:59:12.599Z,18.43
2019-01-05T01:02:11.411Z,19.43
2019-01-05T01:05:12.952Z,18.23
2019-01-05T01:08:05.176Z,19.33
2019-01-05T01:11:06.608Z,19.50
2019-01-05T01:14:12.164Z,17.50
2019-01-05T01:17:10.786Z,18.13
2019-01-05T01:20:03.891Z,19.00
2019-01-05T01:22:53.204Z,18.27
2019-01-05T01:25:46.242Z,18.10
2019-01-05T01:28:47.928Z,18.13
2019-01-05T01:31:43.260Z,17.67
2019-01-05T01:34:32.652Z,17.77
2019-01-05T01:37:23.702Z,18.57
2019-01-05T01:40:14.008Z,18.77
2019-01-05T01:43:15.933Z,18.87
2019-01-05T01:46:14.616Z,19.50
2019-01-05T01:49:04.457Z,18.73
2019-01-05T01:52:00.820Z,19.03
2019-01-05T01:54:53.100Z,20.30
2019-01-05T01:58:01.656Z,18.77
2019-01-05T02:00:57.005Z,25.57
2019-01-05T02:03:52.436Z,20.10
2019-01-05T02:06:49.089Z,20.77
2019-01-05T02:09:53.001Z,21.77
2019-01-05T02:13:02.409Z,20.50
2019-01-05T02:16:09.940Z,20.33
2019-01-05T02:19:19.151Z,20.43
2019-01-05T02:22:42.048Z,20.30
2019-01-05T02:25:37.332Z,20.77
2019-01-05T02:29:01.266Z,20.20
2019-01-05T02:32:13.638Z,21.07
2019-01-05T02:35:15.006Z,21.13
2019-01-05T02:38:46.830Z,22.37
2019-01-05T02:42:12.907Z,21.53
2019-01-05T02:45:43.584Z,20.57
2019-01-05T02:49:07.269Z,21.27
2019-01-05T02:52:14.942Z,22.97
2019-01-05T02:55:25.556Z,23.30
2019-01-05T02:58:49.537Z,23.13
2019-01-05T03:02:16.796Z,23.33
2019-01-05T03:05:21.163Z,24.33
2019-01-05T03:08:46.894Z,24.57
2019-01-05T03:12:01.305Z,25.60
2019-01-05T03:15:22.881Z,25.20
2019-01-05T03:18:37.376Z,23.73
2019-01-05T03:21:50.863Z,24.53
2019-01-05T03:25:19.477Z,25.13
2019-01-05T03:28:41.945Z,21.80
2019-01-05T03:31:46.434Z,23.83
2019-01-05T03:35:19.277Z,25.10
2019-01-05T03:38:20.042Z,23.30
2019-01-05T03:41:39.410Z,23.67
2019-01-05T03:45:11.469Z,22.57
2019-01-05T03:48:20.947Z,23.60
2019-01-05T03:51:25.642Z,22.77
2019-01-05T03:54:40.481Z,22.80
2019-01-05T03:57:53.657Z,22.67
2019-01-05T04:01:22.536Z,22.33
2019-01-05T04:04:42.093Z,22.43
2019-01-05T04:08:04.845Z,23.20
2019-01-05T04:11:20.442Z,23.77
2019-01-05T04:14:18.589Z,21.87
2019-01-05T04:17:45.651Z,21.90
2019-01-05T04:20:50.417Z,23.77
2019-01-05T04:24:01.672Z,25.80
2019-01-05T04:27:13.655Z,23.10
2019-01-05T04:30:17.857Z,22.57
2019-01-05T04:33:13.129Z,23.43
2019-01-05T04:36:23.417Z,22.57
2019-01-05T04:39:31.230Z,21.93
2019-01-05T04:42:48.243Z,22.03
2019-01-05T04:46:23.193Z,21.73
2019-01-05T04:49:56.486Z,23.70
2019-01-05T04:53:10.221Z,20.10
2019-01-05T04:56:32.708Z,19.77
2019-01-05T04:59:47.806Z,21.13
2019-01-05T05:03:01.134Z,20.90
2019-01-05T05:06:04.617Z,20.63
2019-01-05T05:09:20.879Z,20.97
2019-01-05T05:12:25.161Z,19.47
2019-01-05T05:15:49.244Z,19.20
2019-01-05T05:18:44.676Z,19.83
2019-01-05T05:21:46.360Z,18.77
2019-01-05T05:24:44.564Z,18.47
2019-01-05T05:28:10.466Z,19.50
2019-01-05T05:31:15.130Z,17.63
2019-01-05T05:34:10.483Z,17.33
2019-01-05T05:37:52.555Z,16.67
2019-01-05T05:41:13.842Z,15.13
2019-01-05T05:44:24.901Z,16.23
2019-01-05T05:47:34.462Z,16.60
2019-01-05T05:50:32.589Z,16.60
2019-01-05T05:53:58.373Z,16.07
2019-01-05T05:57:15.824Z,15.33
2019-01-05T06:00:38.410Z,13.73
2019-01-05T06:04:05.662Z,13.47
2019-01-05T06:07:18.934Z,13.70
2019-01-05T06:10:28.857Z,13.20
2019-01-05T06:13:30.077Z,13.57
2019-01-05T06:16:27.586Z,12.40
2019-01-05T06:19:47.997Z,12.40
2019-01-05T06:22:40.741Z,12.57
2019-01-05T06:26:06.209Z,12.73
2019-01-05T06:29:20.690Z,11.10
2019-01-05T06:32:46.865Z,11.73
2019-01-05T06:36:09.517Z,11.80
2019-01-05T06:39:17.441Z,11.67
2019-01-05T06:42:34.626Z,12.27
2019-01-05T06:46:02.322Z,11.50
2019-01-05T06:49:42.618Z,12.37
2019-01-05T06:52:54.881Z,11.77
2019-01-05T06:56:04.966Z,10.70
2019-01-05T06:59:20.364Z,11.13
2019-01-05T07:02:35.556Z,13.97
2019-01-05T07:05:56.030Z,12.40
2019-01-05T07:09:21.689Z,11.20
2019-01-05T07:12:42.461Z,9.53
2019-01-05T07:15:40.395Z,10.53
2019-01-05T07:18:50.977Z,9.77
2019-01-05T07:22:05.209Z,11.03
2019-01-05T07:25:35.806Z,9.37
2019-01-05T07:28:50.908Z,9.50
2019-01-05T07:31:46.069Z,8.37
2019-01-05T07:34:50.450Z,9.50
2019-01-05T07:38:06.409Z,9.93
2019-01-05T07:41:24.229Z,8.30
2019-01-05T07:44:47.135Z,7.90
2019-01-05T07:48:19.264Z,8.00
2019-01-05T07:51:46.156Z,7.10
2019-01-05T07:55:06.753Z,7.13
2019-01-05T07:58:41.810Z,6.33
2019-01-05T08:01:40.134Z,6.43
2019-01-05T08:05:07.354Z,6.60
2019-01-05T08:08:39.112Z,5.50
2019-01-05T08:11:43.499Z,5.63
2019-01-05T08:15:09.020Z,5.77
2019-01-05T08:18:28.347Z,5.97
2019-01-05T08:21:42.745Z,5.23
2019-01-05T08:24:47.216Z,5.50
2019-01-05T08:28:06.981Z,5.43
2019-01-05T08:31:13.524Z,4.70
2019-01-05T08:34:32.579Z,4.27
2019-01-05T08:38:04.658Z,4.20
2019-01-05T08:41:27.513Z,4.00
2019-01-05T08:44:48.225Z,3.67
2019-01-05T08:47:49.037Z,4.33
2019-01-05T08:51:11.313Z,4.93
2019-01-05T08:54:35.238Z,3.87
2019-01-05T08:57:51.199Z,9.87
2019-01-05T09:01:15.445Z,8.20
2019-01-05T09:04:34.176Z,10.47
2019-01-05T09:07:49.582Z,4.67
2019-01-05T09:11:01.336Z,36.90
2019-01-05T09:14:19.576Z,3.93
2019-01-05T09:17:44.985Z,5.23
2019-01-05T09:20:57.838Z,4.33
2019-01-05T09:24:08.553Z,7.10
2019-01-05T09:27:20.676Z,5.27
2019-01-05T09:30:48.807Z,4.10
2019-01-05T09:34:18.026Z,7.30
2019-01-05T09:37:51.737Z,6.60
2019-01-05T09:41:17.676Z,20.27
2019-01-05T09:44:41.165Z,7.07
2019-01-05T09:47:59.523Z,5.33
2019-01-05T09:51:22.019Z,10.20
2019-01-05T09:54:50.713Z,15.67
2019-01-05T09:58:12.135Z,5.20
2019-01-05T10:01:19.660Z,5.57
2019-01-05T10:04:44.276Z,5.67
2019-01-05T10:07:51.925Z,7.03
2019-01-05T10:11:13.350Z,4.77
2019-01-05T10:14:32.813Z,3.97
2019-01-05T10:18:11.113Z,3.50
2019-01-05T10:21:15.877Z,3.83
2019-01-05T10:24:56.848Z,3.83
2019-01-05T10:28:20.193Z,4.47
2019-01-05T10:31:39.740Z,3.77
2019-01-05T10:34:43.976Z,4.77
2019-01-05T10:38:18.927Z,3.37
2019-01-05T10:41:14.770Z,4.67
2019-01-05T10:44:19.019Z,7.40
2019-01-05T10:47:34.017Z,5.37
2019-01-05T10:50:50.613Z,7.47
2019-01-05T10:54:11.697Z,6.70
2019-01-05T10:57:32.806Z,5.53
2019-01-05T11:00:31.150Z,3.80
2019-01-05T11:04:06.236Z,5.10
2019-01-05T11:07:18.637Z,3.30
2019-01-05T11:10:29.069Z,4.33
2019-01-05T11:13:32.941Z,3.10
2019-01-05T11:16:40.584Z,4.60
2019-01-05T11:19:45.082Z,3.10
2019-01-05T11:22:59.667Z,3.77
2019-01-05T11:26:25.592Z,7.67
2019-01-05T11:29:48.996Z,3.30
2019-01-05T11:33:02.661Z,6.10
2019-01-05T11:36:21.175Z,29.03
2019-01-05T11:39:37.843Z,7.50
2019-01-05T11:42:42.189Z,4.37
2019-01-05T11:45:40.674Z,2.57
2019-01-05T11:48:52.967Z,2.03
2019-01-05T11:51:51.518Z,2.17
2019-01-05T11:55:19.949Z,2.93
2019-01-05T11:58:32.334Z,2.37
2019-01-05T12:02:08.614Z,3.70
2019-01-05T12:05:35.210Z,3.90
2019-01-05T12:08:42.902Z,3.23
2019-01-05T12:12:00.610Z,2.83
2019-01-05T12:15:33.844Z,4.40
2019-01-05T12:19:02.685Z,5.27
2019-01-05T12:22:13.068Z,3.10
2019-01-05T12:25:23.694Z,4.70
2019-01-05T12:28:56.822Z,3.60
2019-01-05T12:32:28.098Z,4.87
2019-01-05T12:35:35.566Z,4.23
2019-01-05T12:38:52.649Z,4.23
2019-01-05T12:42:07.655Z,4.00
2019-01-05T12:45:40.737Z,4.30
2019-01-05T12:48:50.113Z,3.93
2019-01-05T12:52:16.901Z,4.60
2019-01-05T12:55:23.930Z,4.43
2019-01-05T12:58:40.778Z,4.60
2019-01-05T13:02:03.508Z,4.47
2019-01-05T13:05:38.382Z,5.03
2019-01-05T13:09:05.763Z,5.07
2019-01-05T13:12:37.390Z,5.03
2019-01-05T13:15:57.178Z,5.00
2019-01-05T13:19:20.412Z,4.70
2019-01-05T13:22:38.469Z,6.13
2019-01-05T13:25:50.350Z,5.17
2019-01-05T13:29:09.836Z,6.10
2019-01-05T13:32:28.090Z,6.80
2019-01-05T13:35:22.914Z,13.97
2019-01-05T13:38:58.215Z,14.63
2019-01-05T13:42:09.045Z,8.53
2019-01-05T13:45:06.993Z,6.47
2019-01-05T13:48:14.209Z,9.70
2019-01-05T13:51:15.726Z,7.60
2019-01-05T13:54:08.721Z,10.73
2019-01-05T13:56:58.001Z,13.70
2019-01-05T13:59:47.273Z,7.27
2019-01-05T14:02:53.753Z,10.07
2019-01-05T14:05:46.188Z,15.00
2019-01-05T14:08:52.686Z,7.30
2019-01-05T14:11:45.306Z,12.07
2019-01-05T14:14:47.193Z,12.47
2019-01-05T14:17:36.630Z,14.33
2019-01-05T14:20:38.497Z,26.67
2019-01-05T14:23:46.030Z,14.23
2019-01-05T14:26:44.892Z,13.67
2019-01-05T14:29:37.237Z,10.90
2019-01-05T14:32:26.686Z,7.43
2019-01-05T14:35:25.388Z,8.77
2019-01-05T14:38:23.316Z,8.73
2019-01-05T14:41:15.332Z,7.37
2019-01-05T14:44:05.329Z,8.27
2019-01-05T14:47:11.279Z,7.90
2019-01-05T14:50:17.193Z,7.37
2019-01-05T14:53:12.521Z,10.93
2019-01-05T14:56:11.200Z,7.30
2019-01-05T14:59:00.521Z,7.30
2019-01-05T15:01:50.265Z,7.57
2019-01-05T15:04:49.316Z,10.13
2019-01-05T15:07:54.377Z,8.37
2019-01-05T15:11:00.299Z,8.30
2019-01-05T15:13:52.876Z,9.50
2019-01-05T15:16:42.064Z,8.53
2019-01-05T15:19:31.664Z,8.23
2019-01-05T15:22:23.445Z,9.90
2019-01-05T15:25:15.670Z,9.47
2019-01-05T15:28:05.228Z,9.90
2019-01-05T15:30:54.659Z,10.00
2019-01-05T15:33:47.289Z,9.17
2019-01-05T15:36:53.023Z,9.43
2019-01-05T15:39:42.388Z,11.17
2019-01-05T15:42:31.529Z,11.07
2019-01-05T15:45:27.144Z,11.43
2019-01-05T15:48:25.948Z,10.60
2019-01-05T15:51:31.819Z,12.80
2019-01-05T15:54:30.309Z,10.07
2019-01-05T15:57:36.248Z,11.90
2019-01-05T16:00:32.039Z,12.83
2019-01-05T16:03:33.121Z,13.87
2019-01-05T16:06:28.715Z,22.17
2019-01-05T16:09:26.817Z,28.17
2019-01-05T16:12:19.162Z,12.83
2019-01-05T16:15:24.673Z,12.30
2019-01-05T16:18:20.018Z,13.53
2019-01-05T16:21:12.328Z,13.63
2019-01-05T16:24:04.775Z,14.90
2019-01-05T16:27:03.474Z,14.77
2019-01-05T16:29:52.789Z,12.80
2019-01-05T16:32:51.678Z,18.17
2019-01-05T16:35:47.229Z,14.33
2019-01-05T16:38:45.837Z,12.33
2019-01-05T16:41:35.476Z,14.90
2019-01-05T16:44:33.930Z,16.33
2019-01-05T16:47:28.826Z,17.57
2019-01-05T16:50:33.641Z,17.73
2019-01-05T16:53:22.956Z,12.10
2019-01-05T16:56:14.946Z,10.87
2019-01-05T16:59:16.114Z,11.03
2019-01-05T17:02:17.577Z,11.17
2019-01-05T17:05:10.078Z,11.00
2019-01-05T17:08:16.226Z,9.67
2019-01-05T17:11:22.310Z,10.90
2019-01-05T17:14:28.334Z,10.83
2019-01-05T17:17:29.609Z,11.77
2019-01-05T17:20:35.314Z,9.07
2019-01-05T17:23:24.859Z,9.17
2019-01-05T17:26:27.156Z,10.70
2019-01-05T17:29:35.149Z,10.30
2019-01-05T17:32:37.194Z,8.80
2019-01-05T17:35:32.888Z,9.53
2019-01-05T17:38:27.980Z,9.87
2019-01-05T17:41:23.556Z,10.90
2019-01-05T17:44:15.996Z,10.03
2019-01-05T17:47:22.546Z,11.47
2019-01-05T17:50:27.473Z,14.87
2019-01-05T17:53:25.920Z,10.13
2019-01-05T17:56:17.878Z,10.43
2019-01-05T17:59:23.849Z,10.73
2019-01-05T18:02:31.602Z,9.57
2019-01-05T18:05:37.440Z,9.83
2019-01-05T18:08:27.230Z,12.07
2019-01-05T18:11:32.664Z,14.07
2019-01-05T18:14:38.702Z,14.87
2019-01-05T18:17:28.265Z,12.10
2019-01-05T18:20:34.380Z,11.87
2019-01-05T18:23:24.526Z,14.57
2019-01-05T18:26:17.472Z,14.43
2019-01-05T18:29:15.812Z,14.10
2019-01-05T18:32:14.723Z,12.47
2019-01-05T18:35:20.860Z,11.57
2019-01-05T18:38:13.353Z,11.37
2019-01-05T18:41:15.594Z,10.63
2019-01-05T18:44:11.276Z,10.33
2019-01-05T18:47:17.688Z,9.33
2019-01-05T18:50:11.564Z,10.40
2019-01-05T18:53:07.613Z,9.53
2019-01-05T18:56:06.189Z,10.33
2019-01-05T18:59:11.045Z,11.13
2019-01-05T19:02:06.117Z,9.17
2019-01-05T19:05:25.669Z,9.87
2019-01-05T19:08:21.187Z,9.27
2019-01-05T19:11:13.731Z,11.03
2019-01-05T19:14:06.070Z,10.53
2019-01-05T19:17:04.470Z,10.43
2019-01-05T19:20:06.152Z,9.90
2019-01-05T19:23:12.113Z,11.17
2019-01-05T19:26:01.433Z,10.60
2019-01-05T19:29:07.249Z,10.37
2019-01-05T19:31:56.601Z,8.90
2019-01-05T19:35:01.325Z,9.80
2019-01-05T19:37:53.953Z,8.97
2019-01-05T19:41:02.865Z,8.47
2019-01-05T19:44:07.596Z,8.93
2019-01-05T19:46:57.556Z,8.87
2019-01-05T19:49:49.426Z,8.87
2019-01-05T19:52:50.394Z,9.67
2019-01-05T19:55:39.818Z,15.93
2019-01-05T19:58:35.420Z,42.40
2019-01-05T20:01:43.484Z,9.80
2019-01-05T20:04:51.389Z,12.23
2019-01-05T20:07:41.386Z,10.77
2019-01-05T20:10:47.196Z,10.17
2019-01-05T20:13:45.450Z,9.63
2019-01-05T20:16:50.809Z,8.63
2019-01-05T20:19:46.482Z,9.70
2019-01-05T20:22:38.705Z,9.33
2019-01-05T20:25:31.117Z,10.40
2019-01-05T20:28:32.772Z,9.07
2019-01-05T20:31:25.271Z,8.83
2019-01-05T20:34:21.001Z,8.20
2019-01-05T20:37:27.065Z,9.57
2019-01-05T20:40:31.755Z,9.87
2019-01-05T20:43:21.490Z,9.40
2019-01-05T20:46:28.879Z,9.30
2019-01-05T20:49:20.930Z,10.30
2019-01-05T20:52:16.102Z,10.37
2019-01-05T20:55:22.210Z,8.90
2019-01-05T20:58:11.625Z,9.07
2019-01-05T21:01:17.217Z,9.17
2019-01-05T21:04:06.757Z,10.97
2019-01-05T21:07:12.654Z,11.10
2019-01-05T21:10:05.280Z,9.43
2019-01-05T21:16:24.359Z,10.23
2019-01-05T21:19:29.983Z,9.80
2019-01-05T21:22:22.230Z,10.83
2019-01-05T21:25:14.910Z,9.60
2019-01-05T21:28:17.870Z,9.17
2019-01-05T21:31:10.293Z,8.97
2019-01-05T21:34:12.233Z,8.50
2019-01-05T21:37:04.905Z,9.63
2019-01-05T21:40:10.801Z,8.77
2019-01-05T21:43:17.070Z,9.33
2019-01-05T21:46:18.646Z,9.53
2019-01-05T21:49:24.598Z,9.37
2019-01-05T21:52:23.285Z,8.80
2019-01-05T21:55:12.841Z,9.30
2019-01-05T21:58:14.987Z,8.87
2019-01-05T22:01:04.617Z,8.73
2019-01-05T22:03:53.811Z,10.20
2019-01-05T22:06:59.765Z,9.63
2019-01-05T22:10:04.550Z,10.37
2019-01-05T22:12:57.568Z,9.20
2019-01-05T22:16:04.353Z,8.40
2019-01-05T22:18:59.966Z,8.90
2019-01-05T22:21:49.248Z,8.63
2019-01-05T22:24:53.805Z,8.70
2019-01-05T22:27:58.358Z,8.73
2019-01-05T22:31:04.401Z,9.03
2019-01-05T22:33:57.325Z,8.40
2019-01-05T22:36:55.634Z,9.33
2019-01-05T22:40:01.853Z,8.73
2019-01-05T22:43:07.721Z,9.77
2019-01-05T22:46:13.171Z,10.73
2019-01-05T22:49:02.597Z,9.77
2019-01-05T22:51:54.574Z,9.83
2019-01-05T22:54:56.448Z,9.70
2019-01-05T22:57:45.938Z,10.57
2019-01-05T23:00:35.269Z,10.20
2019-01-05T23:03:41.241Z,9.60
2019-01-05T23:06:30.506Z,9.90
2019-01-05T23:09:29.286Z,9.83
2019-01-05T23:12:27.618Z,9.30
2019-01-05T23:15:20.592Z,10.00
2019-01-05T23:18:26.773Z,9.37
2019-01-05T23:21:16.265Z,10.13
2019-01-05T23:24:14.466Z,9.33
2019-01-05T23:27:06.378Z,9.70
2019-01-05T23:30:08.229Z,9.23
2019-01-05T23:32:57.773Z,9.70
2019-01-05T23:35:50.261Z,10.37
2019-01-05T23:38:50.092Z,10.53
2019-01-05T23:41:53.610Z,10.07
2019-01-05T23:44:49.579Z,10.17
2019-01-05T23:47:57.286Z,9.73
2019-01-05T23:50:49.348Z,9.57
2019-01-05T23:53:47.516Z,8.90
2019-01-05T23:56:46.036Z,9.63
2019-01-05T23:59:41.752Z,8.53
